sensor_id;sensor_type;location;lat;lon;timestamp;pressure;altitude;pressure_sealevel;temperature;humidity
61618;BME280;47518;51.776;9.370;2023-06-10T00:01:48;100256.53;;;17.06;64.61
61618;BME280;47518;51.776;9.370;2023-06-10T00:04:14;100250.72;;;16.89;64.87
61618;BME280;47518;51.776;9.370;2023-06-10T00:06:42;100250.47;;;16.97;64.52
61618;BME280;47518;51.776;9.370;2023-06-10T00:09:09;100254.25;;;17.03;64.35
61618;BME280;47518;51.776;9.370;2023-06-10T00:11:38;100250.78;;;17.14;63.31
61618;BME280;47518;51.776;9.370;2023-06-10T00:14:04;100249.50;;;17.16;63.76
61618;BME280;47518;51.776;9.370;2023-06-10T00:16:29;100251.31;;;17.29;62.24
61618;BME280;47518;51.776;9.370;2023-06-10T00:18:55;100245.94;;;17.41;61.21
61618;BME280;47518;51.776;9.370;2023-06-10T00:21:26;100249.47;;;17.48;61.54
61618;BME280;47518;51.776;9.370;2023-06-10T00:23:54;100256.44;;;17.50;61.32
61618;BME280;47518;51.776;9.370;2023-06-10T00:26:22;100248.97;;;17.58;59.88
61618;BME280;47518;51.776;9.370;2023-06-10T00:28:47;100246.19;;;17.64;60.22
61618;BME280;47518;51.776;9.370;2023-06-10T00:31:16;100246.78;;;17.73;60.08
61618;BME280;47518;51.776;9.370;2023-06-10T00:33:51;100244.97;;;17.85;59.48
61618;BME280;47518;51.776;9.370;2023-06-10T00:36:17;100248.16;;;17.82;60.46
61618;BME280;47518;51.776;9.370;2023-06-10T00:38:42;100240.94;;;17.88;60.17
61618;BME280;47518;51.776;9.370;2023-06-10T00:41:08;100238.97;;;17.70;61.06
61618;BME280;47518;51.776;9.370;2023-06-10T00:43:33;100240.69;;;17.64;61.40
61618;BME280;47518;51.776;9.370;2023-06-10T00:45:59;100241.81;;;17.57;62.56
61618;BME280;47518;51.776;9.370;2023-06-10T00:48:26;100242.88;;;17.56;62.06
61618;BME280;47518;51.776;9.370;2023-06-10T00:50:52;100239.97;;;17.50;62.36
61618;BME280;47518;51.776;9.370;2023-06-10T00:53:18;100241.16;;;17.30;63.47
61618;BME280;47518;51.776;9.370;2023-06-10T00:55:44;100244.66;;;17.12;63.64
61618;BME280;47518;51.776;9.370;2023-06-10T00:58:10;100239.84;;;17.07;63.67
61618;BME280;47518;51.776;9.370;2023-06-10T01:00:36;100243.94;;;17.23;62.55
61618;BME280;47518;51.776;9.370;2023-06-10T01:03:02;100238.28;;;17.18;63.31
61618;BME280;47518;51.776;9.370;2023-06-10T01:05:27;100240.97;;;17.25;62.65
61618;BME280;47518;51.776;9.370;2023-06-10T01:10:48;100237.88;;;17.46;61.61
61618;BME280;47518;51.776;9.370;2023-06-10T01:13:15;100244.03;;;17.41;61.73
61618;BME280;47518;51.776;9.370;2023-06-10T01:15:44;100241.56;;;17.33;61.82
61618;BME280;47518;51.776;9.370;2023-06-10T01:18:11;100240.44;;;17.16;62.78
61618;BME280;47518;51.776;9.370;2023-06-10T01:20:41;100241.50;;;17.15;63.38
61618;BME280;47518;51.776;9.370;2023-06-10T01:23:09;100238.53;;;17.10;63.68
61618;BME280;47518;51.776;9.370;2023-06-10T01:25:38;100240.59;;;17.21;63.39
61618;BME280;47518;51.776;9.370;2023-06-10T01:33:48;100254.50;;;16.95;63.29
61618;BME280;47518;51.776;9.370;2023-06-10T01:36:17;100248.66;;;17.16;63.29
61618;BME280;47518;51.776;9.370;2023-06-10T01:39:08;100250.91;;;16.94;63.20
61618;BME280;47518;51.776;9.370;2023-06-10T01:41:36;100246.25;;;16.95;63.04
61618;BME280;47518;51.776;9.370;2023-06-10T01:44:05;100252.44;;;16.83;63.81
61618;BME280;47518;51.776;9.370;2023-06-10T01:46:31;100254.72;;;16.93;63.98
61618;BME280;47518;51.776;9.370;2023-06-10T01:48:56;100247.09;;;16.95;62.69
61618;BME280;47518;51.776;9.370;2023-06-10T01:51:22;100258.75;;;16.90;62.97
61618;BME280;47518;51.776;9.370;2023-06-10T01:53:48;100257.56;;;16.73;64.09
61618;BME280;47518;51.776;9.370;2023-06-10T01:56:14;100253.34;;;16.71;63.38
61618;BME280;47518;51.776;9.370;2023-06-10T01:58:43;100259.44;;;16.79;63.29
61618;BME280;47518;51.776;9.370;2023-06-10T02:01:12;100266.75;;;16.92;63.37
61618;BME280;47518;51.776;9.370;2023-06-10T02:03:37;100267.69;;;16.66;64.18
61618;BME280;47518;51.776;9.370;2023-06-10T02:06:03;100267.94;;;16.51;64.89
61618;BME280;47518;51.776;9.370;2023-06-10T02:08:29;100266.88;;;16.59;64.88
61618;BME280;47518;51.776;9.370;2023-06-10T02:10:54;100274.28;;;16.52;64.64
61618;BME280;47518;51.776;9.370;2023-06-10T02:13:19;100270.22;;;16.74;64.70
61618;BME280;47518;51.776;9.370;2023-06-10T02:15:45;100270.25;;;16.61;64.11
61618;BME280;47518;51.776;9.370;2023-06-10T02:18:13;100280.56;;;16.66;65.14
61618;BME280;47518;51.776;9.370;2023-06-10T02:20:39;100275.09;;;16.72;64.40
61618;BME280;47518;51.776;9.370;2023-06-10T02:23:04;100279.53;;;16.60;64.27
61618;BME280;47518;51.776;9.370;2023-06-10T02:25:29;100285.66;;;16.55;64.30
61618;BME280;47518;51.776;9.370;2023-06-10T02:27:55;100289.44;;;16.61;65.26
61618;BME280;47518;51.776;9.370;2023-06-10T02:30:21;100287.00;;;16.20;66.27
61618;BME280;47518;51.776;9.370;2023-06-10T02:32:47;100287.88;;;16.07;67.26
61618;BME280;47518;51.776;9.370;2023-06-10T02:35:14;100296.56;;;15.91;67.70
61618;BME280;47518;51.776;9.370;2023-06-10T02:37:40;100291.50;;;15.68;69.25
61618;BME280;47518;51.776;9.370;2023-06-10T02:40:06;100297.19;;;15.66;69.08
61618;BME280;47518;51.776;9.370;2023-06-10T02:42:32;100298.66;;;15.62;69.52
61618;BME280;47518;51.776;9.370;2023-06-10T02:44:57;100290.59;;;15.47;70.03
61618;BME280;47518;51.776;9.370;2023-06-10T02:47:22;100293.75;;;15.51;69.90
61618;BME280;47518;51.776;9.370;2023-06-10T02:49:48;100294.25;;;15.68;69.76
61618;BME280;47518;51.776;9.370;2023-06-10T02:52:13;100298.03;;;15.73;68.89
61618;BME280;47518;51.776;9.370;2023-06-10T02:54:38;100291.91;;;15.85;68.75
61618;BME280;47518;51.776;9.370;2023-06-10T02:57:05;100290.44;;;15.82;68.64
61618;BME280;47518;51.776;9.370;2023-06-10T02:59:35;100292.13;;;15.70;68.76
61618;BME280;47518;51.776;9.370;2023-06-10T03:02:00;100292.75;;;15.52;69.76
61618;BME280;47518;51.776;9.370;2023-06-10T03:04:39;100292.53;;;15.54;70.27
61618;BME280;47518;51.776;9.370;2023-06-10T03:07:04;100291.84;;;15.38;70.56
61618;BME280;47518;51.776;9.370;2023-06-10T03:09:32;100295.00;;;15.22;70.75
61618;BME280;47518;51.776;9.370;2023-06-10T03:11:57;100288.06;;;15.39;70.50
61618;BME280;47518;51.776;9.370;2023-06-10T03:14:32;100286.81;;;15.29;70.50
61618;BME280;47518;51.776;9.370;2023-06-10T03:16:59;100300.91;;;15.32;70.93
61618;BME280;47518;51.776;9.370;2023-06-10T03:19:25;100304.44;;;15.06;71.77
61618;BME280;47518;51.776;9.370;2023-06-10T03:22:07;100298.97;;;15.13;71.15
61618;BME280;47518;51.776;9.370;2023-06-10T03:24:33;100305.91;;;15.15;71.05
61618;BME280;47518;51.776;9.370;2023-06-10T03:26:59;100308.72;;;15.29;71.12
61618;BME280;47518;51.776;9.370;2023-06-10T03:29:25;100312.47;;;15.28;71.44
61618;BME280;47518;51.776;9.370;2023-06-10T03:31:51;100321.72;;;15.13;71.34
61618;BME280;47518;51.776;9.370;2023-06-10T03:34:35;100311.84;;;15.26;70.71
61618;BME280;47518;51.776;9.370;2023-06-10T03:37:04;100317.56;;;15.31;70.99
61618;BME280;47518;51.776;9.370;2023-06-10T03:39:30;100317.13;;;15.27;70.36
61618;BME280;47518;51.776;9.370;2023-06-10T03:41:55;100316.88;;;15.09;72.04
61618;BME280;47518;51.776;9.370;2023-06-10T03:44:22;100323.38;;;15.01;71.45
61618;BME280;47518;51.776;9.370;2023-06-10T03:46:48;100319.47;;;14.76;72.43
61618;BME280;47518;51.776;9.370;2023-06-10T03:49:14;100326.00;;;14.81;73.58
61618;BME280;47518;51.776;9.370;2023-06-10T03:51:40;100320.84;;;15.00;72.54
61618;BME280;47518;51.776;9.370;2023-06-10T03:54:08;100322.34;;;15.09;72.30
61618;BME280;47518;51.776;9.370;2023-06-10T03:56:35;100329.47;;;15.03;71.87
61618;BME280;47518;51.776;9.370;2023-06-10T03:59:00;100326.38;;;15.20;71.15
61618;BME280;47518;51.776;9.370;2023-06-10T04:01:28;100318.59;;;15.16;70.92
61618;BME280;47518;51.776;9.370;2023-06-10T04:03:55;100324.50;;;15.33;71.58
61618;BME280;47518;51.776;9.370;2023-06-10T04:06:21;100326.13;;;15.14;72.25
61618;BME280;47518;51.776;9.370;2023-06-10T04:08:48;100324.44;;;15.13;71.30
61618;BME280;47518;51.776;9.370;2023-06-10T04:11:13;100327.69;;;15.37;71.48
61618;BME280;47518;51.776;9.370;2023-06-10T04:13:42;100332.34;;;15.50;71.31
61618;BME280;47518;51.776;9.370;2023-06-10T04:16:07;100330.09;;;15.66;70.10
61618;BME280;47518;51.776;9.370;2023-06-10T04:18:34;100326.06;;;15.82;69.96
61618;BME280;47518;51.776;9.370;2023-06-10T04:20:59;100328.38;;;15.72;70.63
61618;BME280;47518;51.776;9.370;2023-06-10T04:23:25;100328.19;;;15.93;70.07
61618;BME280;47518;51.776;9.370;2023-06-10T04:25:51;100323.97;;;15.84;69.96
61618;BME280;47518;51.776;9.370;2023-06-10T04:28:16;100321.88;;;15.93;69.83
61618;BME280;47518;51.776;9.370;2023-06-10T04:30:42;100319.31;;;16.04;69.45
61618;BME280;47518;51.776;9.370;2023-06-10T04:33:07;100326.06;;;15.95;71.46
61618;BME280;47518;51.776;9.370;2023-06-10T04:35:34;100326.72;;;16.04;69.04
61618;BME280;47518;51.776;9.370;2023-06-10T04:37:59;100327.09;;;16.27;67.83
61618;BME280;47518;51.776;9.370;2023-06-10T04:40:24;100318.91;;;16.14;67.95
61618;BME280;47518;51.776;9.370;2023-06-10T04:42:50;100326.06;;;15.95;68.91
61618;BME280;47518;51.776;9.370;2023-06-10T04:45:16;100322.69;;;16.07;68.32
61618;BME280;47518;51.776;9.370;2023-06-10T04:47:41;100337.66;;;16.30;67.93
61618;BME280;47518;51.776;9.370;2023-06-10T04:50:07;100326.47;;;16.19;67.73
61618;BME280;47518;51.776;9.370;2023-06-10T04:52:32;100326.44;;;16.32;66.79
61618;BME280;47518;51.776;9.370;2023-06-10T04:54:58;100328.72;;;16.55;67.45
61618;BME280;47518;51.776;9.370;2023-06-10T04:57:27;100325.34;;;16.59;67.27
61618;BME280;47518;51.776;9.370;2023-06-10T04:59:53;100327.63;;;16.82;65.30
61618;BME280;47518;51.776;9.370;2023-06-10T05:02:21;100323.31;;;17.00;64.32
61618;BME280;47518;51.776;9.370;2023-06-10T05:04:49;100320.50;;;17.13;64.60
61618;BME280;47518;51.776;9.370;2023-06-10T05:07:14;100326.75;;;17.33;64.21
61618;BME280;47518;51.776;9.370;2023-06-10T05:09:40;100330.31;;;17.34;63.81
61618;BME280;47518;51.776;9.370;2023-06-10T05:12:05;100321.59;;;17.43;63.71
61618;BME280;47518;51.776;9.370;2023-06-10T05:14:31;100324.84;;;17.65;62.80
61618;BME280;47518;51.776;9.370;2023-06-10T05:16:57;100331.13;;;17.79;63.15
61618;BME280;47518;51.776;9.370;2023-06-10T05:19:22;100324.84;;;17.97;62.32
61618;BME280;47518;51.776;9.370;2023-06-10T05:21:51;100316.97;;;18.00;64.03
61618;BME280;47518;51.776;9.370;2023-06-10T05:24:16;100318.03;;;18.24;61.53
61618;BME280;47518;51.776;9.370;2023-06-10T05:26:41;100323.31;;;18.62;61.95
61618;BME280;47518;51.776;9.370;2023-06-10T05:29:07;100323.31;;;18.62;62.87
61618;BME280;47518;51.776;9.370;2023-06-10T05:31:34;100316.59;;;18.65;60.80
61618;BME280;47518;51.776;9.370;2023-06-10T05:34:00;100315.41;;;18.91;61.55
61618;BME280;47518;51.776;9.370;2023-06-10T05:36:28;100322.38;;;18.93;59.87
61618;BME280;47518;51.776;9.370;2023-06-10T05:38:59;100330.16;;;19.15;59.20
61618;BME280;47518;51.776;9.370;2023-06-10T05:41:34;100315.53;;;18.96;59.21
61618;BME280;47518;51.776;9.370;2023-06-10T05:44:02;100319.78;;;18.99;59.25
61618;BME280;47518;51.776;9.370;2023-06-10T05:46:28;100316.41;;;18.78;59.49
61618;BME280;47518;51.776;9.370;2023-06-10T05:48:54;100321.00;;;18.66;59.94
61618;BME280;47518;51.776;9.370;2023-06-10T05:51:19;100322.97;;;19.14;59.59
61618;BME280;47518;51.776;9.370;2023-06-10T05:53:51;100314.75;;;19.26;58.45
61618;BME280;47518;51.776;9.370;2023-06-10T05:56:17;100312.91;;;19.49;57.40
61618;BME280;47518;51.776;9.370;2023-06-10T05:58:42;100318.78;;;19.53;57.50
61618;BME280;47518;51.776;9.370;2023-06-10T06:01:14;100312.75;;;19.74;54.66
61618;BME280;47518;51.776;9.370;2023-06-10T06:03:40;100321.41;;;19.90;55.70
61618;BME280;47518;51.776;9.370;2023-06-10T06:06:05;100316.88;;;19.84;55.63
61618;BME280;47518;51.776;9.370;2023-06-10T06:08:34;100323.31;;;19.77;53.84
61618;BME280;47518;51.776;9.370;2023-06-10T06:25:34;100316.31;;;20.28;53.47
61618;BME280;47518;51.776;9.370;2023-06-10T06:28:01;100312.94;;;20.61;52.19
61618;BME280;47518;51.776;9.370;2023-06-10T06:30:27;100319.78;;;20.59;52.03
61618;BME280;47518;51.776;9.370;2023-06-10T06:32:52;100317.63;;;20.73;51.47
61618;BME280;47518;51.776;9.370;2023-06-10T06:35:18;100307.41;;;21.13;52.91
61618;BME280;47518;51.776;9.370;2023-06-10T06:37:47;100319.47;;;21.36;50.89
61618;BME280;47518;51.776;9.370;2023-06-10T06:40:12;100318.09;;;21.50;49.48
61618;BME280;47518;51.776;9.370;2023-06-10T06:42:38;100318.19;;;21.55;49.21
61618;BME280;47518;51.776;9.370;2023-06-10T06:45:04;100320.91;;;21.67;49.64
61618;BME280;47518;51.776;9.370;2023-06-10T06:47:29;100320.91;;;21.83;48.76
61618;BME280;47518;51.776;9.370;2023-06-10T06:49:54;100316.66;;;22.09;48.19
61618;BME280;47518;51.776;9.370;2023-06-10T06:52:23;100318.66;;;22.31;48.06
61618;BME280;47518;51.776;9.370;2023-06-10T06:54:48;100323.25;;;22.42;47.83
61618;BME280;47518;51.776;9.370;2023-06-10T06:57:14;100329.72;;;22.48;46.63
61618;BME280;47518;51.776;9.370;2023-06-10T06:59:40;100328.28;;;22.45;47.57
61618;BME280;47518;51.776;9.370;2023-06-10T07:02:06;100325.50;;;22.45;47.58
61618;BME280;47518;51.776;9.370;2023-06-10T07:04:34;100325.75;;;22.43;47.61
61618;BME280;47518;51.776;9.370;2023-06-10T07:07:00;100325.41;;;22.57;47.72
61618;BME280;47518;51.776;9.370;2023-06-10T07:09:25;100339.19;;;22.52;47.65
61618;BME280;47518;51.776;9.370;2023-06-10T07:11:50;100333.81;;;22.62;46.82
61618;BME280;47518;51.776;9.370;2023-06-10T07:14:16;100337.78;;;22.49;46.14
61618;BME280;47518;51.776;9.370;2023-06-10T07:16:41;100343.84;;;22.68;46.20
61618;BME280;47518;51.776;9.370;2023-06-10T07:19:09;100339.34;;;22.45;46.06
61618;BME280;47518;51.776;9.370;2023-06-10T07:21:35;100342.31;;;22.77;45.87
61618;BME280;47518;51.776;9.370;2023-06-10T07:24:01;100346.28;;;22.81;45.62
61618;BME280;47518;51.776;9.370;2023-06-10T07:26:26;100347.03;;;22.93;45.75
61618;BME280;47518;51.776;9.370;2023-06-10T07:28:52;100337.78;;;23.10;45.41
61618;BME280;47518;51.776;9.370;2023-06-10T07:31:17;100335.56;;;23.34;44.22
61618;BME280;47518;51.776;9.370;2023-06-10T07:33:46;100342.41;;;23.26;44.45
61618;BME280;47518;51.776;9.370;2023-06-10T07:36:21;100344.31;;;23.47;44.09
61618;BME280;47518;51.776;9.370;2023-06-10T07:38:46;100342.09;;;23.71;43.40
61618;BME280;47518;51.776;9.370;2023-06-10T07:41:12;100341.63;;;23.79;43.01
61618;BME280;47518;51.776;9.370;2023-06-10T07:43:37;100343.28;;;23.75;43.18
61618;BME280;47518;51.776;9.370;2023-06-10T07:46:03;100333.50;;;24.00;42.27
61618;BME280;47518;51.776;9.370;2023-06-10T07:48:31;100342.75;;;23.78;43.19
61618;BME280;47518;51.776;9.370;2023-06-10T07:50:56;100342.31;;;23.92;43.16
61618;BME280;47518;51.776;9.370;2023-06-10T07:53:25;100339.50;;;23.60;44.05
61618;BME280;47518;51.776;9.370;2023-06-10T07:55:50;100335.09;;;23.96;43.63
61618;BME280;47518;51.776;9.370;2023-06-10T07:58:15;100339.75;;;23.85;43.92
61618;BME280;47518;51.776;9.370;2023-06-10T08:00:41;100340.84;;;23.84;43.79
61618;BME280;47518;51.776;9.370;2023-06-10T08:03:07;100334.69;;;24.09;44.27
61618;BME280;47518;51.776;9.370;2023-06-10T08:05:32;100340.38;;;24.29;43.61
61618;BME280;47518;51.776;9.370;2023-06-10T08:08:04;100340.38;;;24.29;43.04
61618;BME280;47518;51.776;9.370;2023-06-10T08:10:29;100338.81;;;24.38;42.08
61618;BME280;47518;51.776;9.370;2023-06-10T08:12:54;100343.97;;;24.62;42.08
61618;BME280;47518;51.776;9.370;2023-06-10T08:15:29;100345.44;;;24.74;41.40
61618;BME280;47518;51.776;9.370;2023-06-10T08:17:55;100337.66;;;24.77;41.24
61618;BME280;47518;51.776;9.370;2023-06-10T08:20:22;100341.88;;;24.84;40.62
61618;BME280;47518;51.776;9.370;2023-06-10T08:22:47;100340.84;;;25.00;41.14
61618;BME280;47518;51.776;9.370;2023-06-10T08:25:13;100345.53;;;24.90;40.09
61618;BME280;47518;51.776;9.370;2023-06-10T08:27:38;100344.28;;;25.13;40.07
61618;BME280;47518;51.776;9.370;2023-06-10T08:30:05;100342.34;;;25.13;40.00
61618;BME280;47518;51.776;9.370;2023-06-10T08:32:31;100347.13;;;25.33;40.47
61618;BME280;47518;51.776;9.370;2023-06-10T08:34:56;100345.75;;;25.41;39.42
61618;BME280;47518;51.776;9.370;2023-06-10T08:37:22;100343.22;;;25.29;40.58
61618;BME280;47518;51.776;9.370;2023-06-10T08:39:50;100348.53;;;25.46;39.60
61618;BME280;47518;51.776;9.370;2023-06-10T08:45:00;100345.59;;;25.88;39.21
61618;BME280;47518;51.776;9.370;2023-06-10T08:47:34;100341.69;;;25.79;39.36
61618;BME280;47518;51.776;9.370;2023-06-10T08:50:03;100334.47;;;25.73;39.42
61618;BME280;47518;51.776;9.370;2023-06-10T08:52:34;100326.94;;;25.83;39.13
61618;BME280;47518;51.776;9.370;2023-06-10T08:55:04;100326.41;;;26.07;38.64
61618;BME280;47518;51.776;9.370;2023-06-10T08:57:30;100323.63;;;26.07;39.59
61618;BME280;47518;51.776;9.370;2023-06-10T08:59:57;100327.75;;;26.35;39.40
61618;BME280;47518;51.776;9.370;2023-06-10T09:02:24;100315.53;;;26.41;39.29
61618;BME280;47518;51.776;9.370;2023-06-10T09:04:50;100322.22;;;26.09;38.41
61618;BME280;47518;51.776;9.370;2023-06-10T09:07:16;100313.00;;;26.29;39.21
61618;BME280;47518;51.776;9.370;2023-06-10T09:09:42;100319.97;;;26.52;37.95
61618;BME280;47518;51.776;9.370;2023-06-10T09:12:08;100323.31;;;26.54;37.99
61618;BME280;47518;51.776;9.370;2023-06-10T09:14:34;100314.38;;;26.57;37.95
61618;BME280;47518;51.776;9.370;2023-06-10T09:16:59;100321.63;;;26.58;38.31
61618;BME280;47518;51.776;9.370;2023-06-10T09:19:26;100314.59;;;26.71;37.71
61618;BME280;47518;51.776;9.370;2023-06-10T09:21:52;100315.25;;;26.42;38.20
61618;BME280;47518;51.776;9.370;2023-06-10T09:24:18;100308.78;;;26.67;38.57
61618;BME280;47518;51.776;9.370;2023-06-10T09:26:43;100317.38;;;26.81;37.44
61618;BME280;47518;51.776;9.370;2023-06-10T09:29:09;100321.31;;;26.60;37.82
61618;BME280;47518;51.776;9.370;2023-06-10T09:31:38;100314.38;;;26.47;38.20
61618;BME280;47518;51.776;9.370;2023-06-10T09:34:36;100315.16;;;26.78;37.74
61618;BME280;47518;51.776;9.370;2023-06-10T09:37:05;100318.47;;;26.90;38.19
61618;BME280;47518;51.776;9.370;2023-06-10T09:39:30;100315.09;;;27.03;38.05
61618;BME280;47518;51.776;9.370;2023-06-10T09:41:55;100307.00;;;26.92;37.82
61618;BME280;47518;51.776;9.370;2023-06-10T09:44:21;100312.97;;;26.65;37.61
61618;BME280;47518;51.776;9.370;2023-06-10T09:46:48;100307.41;;;26.55;38.39
61618;BME280;47518;51.776;9.370;2023-06-10T09:49:16;100304.56;;;26.75;38.59
61618;BME280;47518;51.776;9.370;2023-06-10T09:51:53;100303.44;;;26.81;38.51
61618;BME280;47518;51.776;9.370;2023-06-10T09:54:31;100307.84;;;26.92;37.95
61618;BME280;47518;51.776;9.370;2023-06-10T09:56:57;100296.94;;;27.01;37.46
61618;BME280;47518;51.776;9.370;2023-06-10T09:59:31;100304.75;;;27.09;38.11
61618;BME280;47518;51.776;9.370;2023-06-10T10:01:57;100308.97;;;27.01;38.42
61618;BME280;47518;51.776;9.370;2023-06-10T10:04:37;100304.44;;;27.16;38.39
61618;BME280;47518;51.776;9.370;2023-06-10T10:07:02;100300.84;;;27.05;37.46
61618;BME280;47518;51.776;9.370;2023-06-10T10:09:28;100305.16;;;27.31;37.98
61618;BME280;47518;51.776;9.370;2023-06-10T10:11:53;100295.06;;;27.41;37.82
61618;BME280;47518;51.776;9.370;2023-06-10T10:14:20;100300.31;;;27.03;37.97
61618;BME280;47518;51.776;9.370;2023-06-10T10:16:47;100306.47;;;26.90;38.71
61618;BME280;47518;51.776;9.370;2023-06-10T10:19:20;100304.47;;;27.00;38.71
61618;BME280;47518;51.776;9.370;2023-06-10T10:21:53;100304.66;;;27.24;38.43
61618;BME280;47518;51.776;9.370;2023-06-10T10:24:21;100295.13;;;27.36;38.99
61618;BME280;47518;51.776;9.370;2023-06-10T10:26:48;100296.78;;;27.37;37.34
61618;BME280;47518;51.776;9.370;2023-06-10T10:29:22;100300.06;;;27.49;38.13
61618;BME280;47518;51.776;9.370;2023-06-10T10:31:51;100293.25;;;27.65;37.62
61618;BME280;47518;51.776;9.370;2023-06-10T10:37:23;100297.16;;;27.64;38.23
61618;BME280;47518;51.776;9.370;2023-06-10T10:39:48;100295.75;;;27.72;38.36
61618;BME280;47518;51.776;9.370;2023-06-10T10:42:15;100298.22;;;28.07;38.46
61618;BME280;47518;51.776;9.370;2023-06-10T10:44:42;100290.22;;;27.96;37.19
61618;BME280;47518;51.776;9.370;2023-06-10T10:47:08;100291.31;;;28.00;37.79
61618;BME280;47518;51.776;9.370;2023-06-10T10:49:37;100292.44;;;28.33;38.09
61618;BME280;47518;51.776;9.370;2023-06-10T10:52:03;100296.19;;;28.18;36.89
61618;BME280;47518;51.776;9.370;2023-06-10T10:57:14;100289.63;;;29.10;35.03
61618;BME280;47518;51.776;9.370;2023-06-10T10:59:56;100293.03;;;29.44;35.00
61618;BME280;47518;51.776;9.370;2023-06-10T11:02:41;100288.59;;;29.62;34.62
61618;BME280;47518;51.776;9.370;2023-06-10T11:05:10;100283.34;;;29.93;33.49
61618;BME280;47518;51.776;9.370;2023-06-10T11:07:37;100283.75;;;29.30;35.21
61618;BME280;47518;51.776;9.370;2023-06-10T11:10:11;100282.94;;;29.48;35.37
61618;BME280;47518;51.776;9.370;2023-06-10T11:15:27;100281.47;;;29.88;35.23
61618;BME280;47518;51.776;9.370;2023-06-10T11:21:02;100275.06;;;30.34;34.02
61618;BME280;47518;51.776;9.370;2023-06-10T11:26:18;100273.22;;;30.57;33.43
61618;BME280;47518;51.776;9.370;2023-06-10T11:31:28;100271.78;;;31.15;32.97
61618;BME280;47518;51.776;9.370;2023-06-10T11:47:00;100276.38;;;30.69;34.20
61618;BME280;47518;51.776;9.370;2023-06-10T11:49:26;100256.09;;;30.72;34.03
61618;BME280;47518;51.776;9.370;2023-06-10T11:51:51;100263.66;;;30.58;34.62
61618;BME280;47518;51.776;9.370;2023-06-10T11:54:17;100265.28;;;30.32;35.35
61618;BME280;47518;51.776;9.370;2023-06-10T11:56:42;100274.31;;;29.96;35.78
61618;BME280;47518;51.776;9.370;2023-06-10T11:59:08;100271.38;;;29.87;36.61
61618;BME280;47518;51.776;9.370;2023-06-10T12:01:36;100264.16;;;29.49;36.55
61618;BME280;47518;51.776;9.370;2023-06-10T12:04:04;100262.59;;;29.38;36.81
61618;BME280;47518;51.776;9.370;2023-06-10T12:06:51;100276.91;;;29.36;36.86
61618;BME280;47518;51.776;9.370;2023-06-10T12:09:19;100267.84;;;29.44;36.57
61618;BME280;47518;51.776;9.370;2023-06-10T12:11:49;100266.25;;;29.19;37.67
61618;BME280;47518;51.776;9.370;2023-06-10T12:14:15;100260.72;;;29.14;37.57
61618;BME280;47518;51.776;9.370;2023-06-10T12:16:48;100259.50;;;29.39;37.71
61618;BME280;47518;51.776;9.370;2023-06-10T12:19:13;100259.44;;;29.44;36.97
61618;BME280;47518;51.776;9.370;2023-06-10T12:21:39;100256.56;;;29.30;36.81
61618;BME280;47518;51.776;9.370;2023-06-10T12:24:08;100258.00;;;29.47;37.01
61618;BME280;47518;51.776;9.370;2023-06-10T12:26:43;100255.19;;;29.47;36.37
61618;BME280;47518;51.776;9.370;2023-06-10T12:29:18;100256.38;;;29.03;37.71
61618;BME280;47518;51.776;9.370;2023-06-10T12:32:02;100257.34;;;28.69;38.68
61618;BME280;47518;51.776;9.370;2023-06-10T12:34:34;100245.44;;;28.59;38.64
61618;BME280;47518;51.776;9.370;2023-06-10T12:37:01;100246.31;;;28.78;38.47
61618;BME280;47518;51.776;9.370;2023-06-10T12:39:26;100249.50;;;28.95;38.58
61618;BME280;47518;51.776;9.370;2023-06-10T12:41:52;100236.75;;;28.84;37.90
61618;BME280;47518;51.776;9.370;2023-06-10T12:44:18;100242.78;;;29.15;38.92
61618;BME280;47518;51.776;9.370;2023-06-10T12:46:43;100245.56;;;29.15;36.89
61618;BME280;47518;51.776;9.370;2023-06-10T12:49:19;100233.34;;;29.30;37.09
61618;BME280;47518;51.776;9.370;2023-06-10T12:51:45;100238.09;;;29.29;37.13
61618;BME280;47518;51.776;9.370;2023-06-10T12:54:10;100235.28;;;29.11;38.13
61618;BME280;47518;51.776;9.370;2023-06-10T12:56:36;100231.50;;;29.01;38.69
61618;BME280;47518;51.776;9.370;2023-06-10T12:59:01;100235.38;;;28.82;39.28
61618;BME280;47518;51.776;9.370;2023-06-10T13:01:28;100238.09;;;28.87;39.14
61618;BME280;47518;51.776;9.370;2023-06-10T13:03:53;100230.53;;;28.87;38.87
61618;BME280;47518;51.776;9.370;2023-06-10T13:06:19;100242.03;;;29.10;38.39
61618;BME280;47518;51.776;9.370;2023-06-10T13:08:45;100234.22;;;29.25;37.80
61618;BME280;47518;51.776;9.370;2023-06-10T13:11:12;100233.31;;;29.11;38.52
61618;BME280;47518;51.776;9.370;2023-06-10T13:13:37;100225.47;;;29.32;38.37
61618;BME280;47518;51.776;9.370;2023-06-10T13:16:02;100230.06;;;29.42;38.34
61618;BME280;47518;51.776;9.370;2023-06-10T13:18:28;100219.28;;;29.54;37.45
61618;BME280;47518;51.776;9.370;2023-06-10T13:20:53;100223.50;;;29.51;37.37
61618;BME280;47518;51.776;9.370;2023-06-10T13:23:19;100221.69;;;29.23;38.45
61618;BME280;47518;51.776;9.370;2023-06-10T13:25:44;100218.50;;;29.29;37.51
61618;BME280;47518;51.776;9.370;2023-06-10T13:28:10;100216.22;;;29.13;37.86
61618;BME280;47518;51.776;9.370;2023-06-10T13:30:37;100214.81;;;29.53;37.70
61618;BME280;47518;51.776;9.370;2023-06-10T13:33:02;100216.94;;;29.75;37.74
61618;BME280;47518;51.776;9.370;2023-06-10T13:35:27;100221.84;;;29.50;36.96
61618;BME280;47518;51.776;9.370;2023-06-10T13:37:53;100211.78;;;29.30;37.43
61618;BME280;47518;51.776;9.370;2023-06-10T13:40:18;100203.88;;;29.14;38.51
61618;BME280;47518;51.776;9.370;2023-06-10T13:42:45;100205.09;;;29.26;38.19
61618;BME280;47518;51.776;9.370;2023-06-10T13:45:14;100201.94;;;28.95;38.77
61618;BME280;47518;51.776;9.370;2023-06-10T13:47:39;100195.50;;;28.95;38.72